createdAt,value
2022-08-01T00:00:54.045Z,101152.19
2022-08-01T00:03:21.952Z,101157.63
2022-08-01T00:05:50.067Z,101164.19
2022-08-01T00:08:17.940Z,101166.06
2022-08-01T00:10:46.011Z,101169.47
2022-08-01T00:13:15.265Z,101155.22
2022-08-01T00:15:44.338Z,101160.91
2022-08-01T00:18:19.751Z,101167.03
2022-08-01T00:20:47.634Z,101156.91
2022-08-01T00:23:15.511Z,101156.66
2022-08-01T00:25:43.535Z,101157.25
2022-08-01T00:28:11.566Z,101158.69
2022-08-01T00:30:40.821Z,101159.53
2022-08-01T00:33:08.921Z,101157.38
2022-08-01T00:35:36.921Z,101143.94
2022-08-01T00:38:04.840Z,101152.66
2022-08-01T00:40:32.968Z,101160.78
2022-08-01T00:43:00.936Z,101158.38
2022-08-01T00:45:28.942Z,101162.63
2022-08-01T00:47:58.570Z,101154.66
2022-08-01T00:50:26.635Z,101150.22
2022-08-01T00:52:55.738Z,101158.53
2022-08-01T00:55:24.782Z,101161.06
2022-08-01T00:58:04.584Z,101155.50
2022-08-01T01:00:53.283Z,101152.94
2022-08-01T01:06:40.845Z,101154.31
2022-08-01T01:09:19.262Z,101157.56
2022-08-01T01:11:54.000Z,101150.44
2022-08-01T01:14:29.744Z,101160.56
2022-08-01T01:17:00.798Z,101152.88
2022-08-01T01:19:35.432Z,101155.28
2022-08-01T01:22:20.217Z,101160.56
2022-08-01T01:25:00.593Z,101154.31
2022-08-01T01:27:41.641Z,101167.00
2022-08-01T01:30:11.292Z,101159.84
2022-08-01T01:32:43.818Z,101165.81
2022-08-01T01:35:17.750Z,101164.69
2022-08-01T01:37:49.253Z,101157.03
2022-08-01T01:40:19.053Z,101162.72
2022-08-01T01:42:48.621Z,101174.97
2022-08-01T01:45:19.250Z,101170.97
2022-08-01T01:47:48.267Z,101173.41
2022-08-01T01:50:17.731Z,101176.97
2022-08-01T01:52:47.677Z,101172.09
2022-08-01T01:55:16.560Z,101173.28
2022-08-01T01:57:46.770Z,101173.81
2022-08-01T02:00:17.685Z,101174.00
2022-08-01T02:02:47.377Z,101177.13
2022-08-01T02:05:17.221Z,101177.84
2022-08-01T02:07:48.497Z,101176.31
2022-08-01T02:10:19.736Z,101183.28
2022-08-01T02:12:59.360Z,101175.44
2022-08-01T02:15:30.689Z,101179.59
2022-08-01T02:17:59.840Z,101175.72
2022-08-01T02:20:31.099Z,101171.16
2022-08-01T02:23:03.889Z,101176.91
2022-08-01T02:25:36.185Z,101174.03
2022-08-01T02:28:09.172Z,101185.88
2022-08-01T02:30:41.308Z,101179.88
2022-08-01T02:33:16.085Z,101186.88
2022-08-01T02:36:29.771Z,101185.75
2022-08-01T02:38:39.760Z,101180.19
2022-08-01T02:41:14.933Z,101182.19
2022-08-01T02:43:50.841Z,101186.47
2022-08-01T02:46:27.966Z,101181.63
2022-08-01T02:49:00.712Z,101186.47
2022-08-01T02:51:30.464Z,101187.91
2022-08-01T02:54:01.151Z,101187.34
2022-08-01T02:56:36.680Z,101193.59
2022-08-01T02:59:07.993Z,101191.03
2022-08-01T03:01:38.607Z,101191.75
2022-08-01T03:04:11.393Z,101192.19
2022-08-01T03:06:39.878Z,101206.47
2022-08-01T03:09:10.757Z,101199.59
2022-08-01T03:11:42.023Z,101200.75
2022-08-01T03:14:12.726Z,101201.31
2022-08-01T03:16:44.636Z,101203.03
2022-08-01T03:19:14.248Z,101204.72
2022-08-01T03:21:44.637Z,101208.00
2022-08-01T03:24:14.986Z,101208.84
2022-08-01T03:26:44.364Z,101205.75
2022-08-01T03:29:18.087Z,101215.16
2022-08-01T03:31:48.493Z,101211.00
2022-08-01T03:34:16.625Z,101210.72
2022-08-01T03:36:49.970Z,101215.56
2022-08-01T03:39:20.275Z,101225.41
2022-08-01T03:41:56.669Z,101218.41
2022-08-01T03:44:29.796Z,101219.28
2022-08-01T03:47:03.821Z,101222.41
2022-08-01T03:49:33.881Z,101223.28
2022-08-01T03:52:06.042Z,101220.56
2022-08-01T03:54:37.922Z,101226.69
2022-08-01T03:57:07.313Z,101226.25
2022-08-01T03:59:38.864Z,101231.53
2022-08-01T04:02:08.933Z,101228.53
2022-08-01T04:04:37.430Z,101238.50
2022-08-01T04:07:08.739Z,101231.25
2022-08-01T04:09:36.693Z,101234.50
2022-08-01T04:12:11.987Z,101240.94
2022-08-01T04:14:40.321Z,101256.31
2022-08-01T04:17:09.617Z,101252.34
2022-08-01T04:19:37.532Z,101250.34
2022-08-01T04:22:06.808Z,101260.00
2022-08-01T04:24:37.482Z,101256.03
2022-08-01T04:27:11.251Z,101248.59
2022-08-01T04:29:40.594Z,101253.16
2022-08-01T04:32:13.726Z,101260.88
2022-08-01T04:34:47.178Z,101268.28
2022-08-01T04:37:18.671Z,101271.56
2022-08-01T04:39:50.640Z,101272.13
2022-08-01T04:42:26.120Z,101284.69
2022-08-01T04:45:01.326Z,101279.69
2022-08-01T04:47:32.718Z,101281.25
2022-08-01T04:50:00.854Z,101277.38
2022-08-01T04:52:35.573Z,101281.25
2022-08-01T04:55:03.683Z,101285.09
2022-08-01T04:57:31.790Z,101291.63
2022-08-01T05:00:00.058Z,101290.78
2022-08-01T05:02:30.067Z,101295.78
2022-08-01T05:04:59.552Z,101294.22
2022-08-01T05:07:27.477Z,101296.94
2022-08-01T05:09:56.001Z,101289.69
2022-08-01T05:12:24.125Z,101301.63
2022-08-01T05:14:52.029Z,101295.81
2022-08-01T05:17:19.932Z,101297.09
2022-08-01T05:19:48.040Z,101303.22
2022-08-01T05:22:17.859Z,101297.91
2022-08-01T05:24:45.825Z,101309.31
2022-08-01T05:27:17.132Z,101307.91
2022-08-01T05:29:47.298Z,101307.06
2022-08-01T05:32:15.236Z,101308.31
2022-08-01T05:34:44.062Z,101319.88
2022-08-01T05:37:11.946Z,101327.28
2022-08-01T05:39:41.468Z,101325.84
2022-08-01T05:42:09.498Z,101314.19
2022-08-01T05:44:37.522Z,101325.44
2022-08-01T05:47:05.554Z,101334.00
2022-08-01T05:49:33.673Z,101327.28
2022-08-01T05:52:03.136Z,101324.44
2022-08-01T05:54:32.162Z,101330.28
2022-08-01T05:57:02.843Z,101336.41
2022-08-01T05:59:31.165Z,101340.09
2022-08-01T06:01:59.213Z,101338.59
2022-08-01T06:04:28.641Z,101339.25
2022-08-01T06:06:56.695Z,101342.97
2022-08-01T06:09:24.611Z,101342.69
2022-08-01T06:11:52.627Z,101342.13
2022-08-01T06:14:21.857Z,101353.25
2022-08-01T06:16:49.830Z,101353.53
2022-08-01T06:19:17.718Z,101350.78
2022-08-01T06:21:45.649Z,101342.00
2022-08-01T06:24:13.529Z,101341.19
2022-08-01T06:26:41.507Z,101343.59
2022-08-01T06:29:10.021Z,101352.34
2022-08-01T06:31:39.480Z,101363.66
2022-08-01T06:34:07.419Z,101368.16
2022-08-01T06:36:35.358Z,101370.91
2022-08-01T06:39:03.301Z,101368.09
2022-08-01T06:41:31.301Z,101373.81
2022-08-01T06:44:00.953Z,101372.22
2022-08-01T06:46:30.354Z,101371.22
2022-08-01T06:49:01.894Z,101380.38
2022-08-01T06:51:29.807Z,101381.78
2022-08-01T06:53:57.799Z,101388.75
2022-08-01T06:56:25.769Z,101380.06
2022-08-01T06:58:53.908Z,101388.91
2022-08-01T07:01:21.910Z,101391.44
2022-08-01T07:03:53.058Z,101389.72
2022-08-01T07:06:25.203Z,101391.16
2022-08-01T07:08:53.562Z,101388.59
2022-08-01T07:11:21.906Z,101390.16
2022-08-01T07:13:50.133Z,101394.16
2022-08-01T07:16:19.432Z,101393.72
2022-08-01T07:18:47.379Z,101397.44
2022-08-01T07:21:39.000Z,101402.47
2022-08-01T07:24:13.425Z,101408.91
2022-08-01T07:26:52.474Z,101414.88
2022-08-01T07:29:23.600Z,101415.75
2022-08-01T07:31:51.559Z,101422.88
2022-08-01T07:34:19.470Z,101419.13
2022-08-01T07:36:47.756Z,101419.13
2022-08-01T07:39:17.028Z,101420.41
2022-08-01T07:41:53.042Z,101423.56
2022-08-01T07:44:32.864Z,101427.41
2022-08-01T07:47:00.757Z,101433.53
2022-08-01T07:49:28.803Z,101429.81
2022-08-01T07:52:03.643Z,101443.78
2022-08-01T07:54:34.684Z,101453.22
2022-08-01T07:57:03.265Z,101451.22
2022-08-01T07:59:31.138Z,101451.91
2022-08-01T08:01:59.183Z,101458.97
2022-08-01T08:04:27.356Z,101459.25
2022-08-01T08:06:55.454Z,101459.25
2022-08-01T08:09:23.936Z,101467.94
2022-08-01T08:11:53.376Z,101471.94
2022-08-01T08:14:23.757Z,101479.50
2022-08-01T08:17:02.179Z,101475.91
2022-08-01T08:19:37.729Z,101479.81
2022-08-01T08:22:07.499Z,101484.06
2022-08-01T08:24:35.664Z,101479.38
2022-08-01T08:27:05.350Z,101479.22
2022-08-01T08:29:34.055Z,101488.47
2022-08-01T08:32:03.225Z,101487.50
2022-08-01T08:34:31.629Z,101498.47
2022-08-01T08:37:00.785Z,101502.06
2022-08-01T08:39:30.553Z,101499.56
2022-08-01T08:41:59.861Z,101501.41
2022-08-01T08:44:29.176Z,101496.28
2022-08-01T08:46:59.914Z,101506.53
2022-08-01T08:49:35.916Z,101502.28
2022-08-01T08:52:06.618Z,101499.72
2022-08-01T08:54:39.223Z,101511.91
2022-08-01T08:57:11.538Z,101511.03
2022-08-01T08:59:41.790Z,101519.53
2022-08-01T09:02:11.386Z,101503.97
2022-08-01T09:04:41.259Z,101514.31
2022-08-01T09:07:12.271Z,101509.09
2022-08-01T09:09:41.751Z,101513.13
2022-08-01T09:12:10.355Z,101511.72
2022-08-01T09:14:48.550Z,101520.47
2022-08-01T09:17:17.456Z,101527.69
2022-08-01T09:19:48.852Z,101528.38
2022-08-01T09:22:19.685Z,101527.06
2022-08-01T09:25:01.491Z,101528.25
2022-08-01T09:27:30.531Z,101538.78
2022-08-01T09:30:11.236Z,101538.47
2022-08-01T09:32:55.402Z,101537.84
2022-08-01T09:35:29.846Z,101535.44
2022-08-01T09:38:15.502Z,101553.78
2022-08-01T09:40:52.096Z,101553.78
2022-08-01T09:43:21.005Z,101549.22
2022-08-01T09:45:53.464Z,101548.66
2022-08-01T09:48:28.685Z,101550.06
2022-08-01T09:51:00.872Z,101555.16
2022-08-01T09:53:42.977Z,101552.50
2022-08-01T09:56:19.597Z,101547.16
2022-08-01T09:59:00.965Z,101558.25
2022-08-01T10:01:44.853Z,101560.75
2022-08-01T10:04:16.983Z,101559.66
2022-08-01T10:06:50.246Z,101560.44
2022-08-01T10:09:36.010Z,101552.66
2022-08-01T10:12:15.205Z,101550.28
2022-08-01T10:14:46.205Z,101546.13
2022-08-01T10:17:19.598Z,101556.53
2022-08-01T10:19:51.524Z,101564.19
2022-08-01T10:22:21.567Z,101567.91
2022-08-01T10:24:52.374Z,101558.97
2022-08-01T10:27:24.274Z,101562.91
2022-08-01T10:30:20.102Z,101567.06
2022-08-01T10:32:55.107Z,101568.19
2022-08-01T10:35:46.873Z,101565.16
2022-08-01T10:38:13.894Z,101569.69
2022-08-01T10:40:43.602Z,101567.25
2022-08-01T10:43:12.047Z,101573.78
2022-08-01T10:45:41.310Z,101569.78
2022-08-01T10:48:20.861Z,101572.25
2022-08-01T10:50:51.540Z,101572.94
2022-08-01T10:53:24.079Z,101575.50
2022-08-01T10:56:04.572Z,101562.53
2022-08-01T10:58:42.595Z,101572.03
2022-08-01T11:01:26.270Z,101575.91
2022-08-01T11:04:06.354Z,101572.91
2022-08-01T11:06:43.338Z,101564.53
2022-08-01T11:09:36.087Z,101581.47
2022-08-01T11:12:13.224Z,101578.41
2022-08-01T11:15:29.162Z,101585.22
2022-08-01T11:18:01.186Z,101584.19
2022-08-01T11:20:32.574Z,101584.72
2022-08-01T11:23:18.665Z,101589.97
2022-08-01T11:26:10.498Z,101588.63
2022-08-01T11:28:41.195Z,101585.38
2022-08-01T11:31:37.089Z,101581.44
2022-08-01T11:34:06.033Z,101586.06
2022-08-01T11:39:23.466Z,101597.13
2022-08-01T11:41:53.750Z,101583.09
2022-08-01T11:44:30.217Z,101583.31
2022-08-01T11:47:09.774Z,101593.59
2022-08-01T11:50:00.583Z,101588.13
2022-08-01T11:52:32.970Z,101575.16
2022-08-01T11:55:10.337Z,101588.84
2022-08-01T11:57:39.451Z,101595.47
2022-08-01T12:00:15.435Z,101584.56
2022-08-01T12:02:46.354Z,101593.22
2022-08-01T12:05:16.042Z,101599.78
2022-08-01T12:07:47.386Z,101601.50
2022-08-01T12:10:16.865Z,101594.72
2022-08-01T12:12:47.132Z,101599.19
2022-08-01T12:15:15.467Z,101607.31
2022-08-01T12:17:57.524Z,101606.75
2022-08-01T12:20:30.464Z,101614.56
2022-08-01T12:23:02.077Z,101618.00
2022-08-01T12:25:30.240Z,101624.66
2022-08-01T12:28:02.951Z,101613.66
2022-08-01T12:30:36.248Z,101625.13
2022-08-01T12:33:05.455Z,101620.22
2022-08-01T12:35:33.991Z,101623.25
2022-08-01T12:38:05.581Z,101626.34
2022-08-01T12:40:36.515Z,101628.97
2022-08-01T12:43:06.947Z,101617.81
2022-08-01T12:45:40.550Z,101620.38
2022-08-01T12:48:22.726Z,101617.81
2022-08-01T12:50:53.402Z,101620.63
2022-08-01T12:53:23.442Z,101617.47
2022-08-01T12:55:59.273Z,101603.84
2022-08-01T12:58:33.774Z,101609.56
2022-08-01T13:01:06.500Z,101603.44
2022-08-01T13:03:34.668Z,101621.53
2022-08-01T13:06:03.074Z,101606.84
2022-08-01T13:08:35.277Z,101612.22
2022-08-01T13:11:05.805Z,101613.69
2022-08-01T13:13:41.808Z,101610.28
2022-08-01T13:16:12.426Z,101621.13
2022-08-01T13:18:51.588Z,101620.06
2022-08-01T13:21:21.677Z,101613.41
2022-08-01T13:24:06.271Z,101617.16
2022-08-01T13:26:44.735Z,101621.66
2022-08-01T13:29:14.885Z,101602.59
2022-08-01T13:31:43.628Z,101611.06
2022-08-01T13:34:12.098Z,101610.59
2022-08-01T13:36:45.509Z,101616.28
2022-08-01T13:39:35.809Z,101625.53
2022-08-01T13:42:04.228Z,101614.19
2022-08-01T13:44:32.322Z,101614.03
2022-08-01T13:47:00.165Z,101604.22
2022-08-01T13:49:35.572Z,101604.22
2022-08-01T13:52:08.331Z,101610.84
2022-08-01T13:54:38.257Z,101609.56
2022-08-01T13:57:06.200Z,101616.13
2022-08-01T13:59:34.047Z,101617.34
2022-08-01T14:02:02.124Z,101623.97
2022-08-01T14:04:30.051Z,101610.91
2022-08-01T14:06:57.957Z,101612.16
2022-08-01T14:09:32.236Z,101629.97
2022-08-01T14:12:02.131Z,101628.50
2022-08-01T14:14:31.363Z,101633.00
2022-08-01T14:16:59.318Z,101638.75
2022-08-01T14:19:37.539Z,101636.78
2022-08-01T14:22:08.173Z,101635.78
2022-08-01T14:24:36.308Z,101639.44
2022-08-01T14:27:08.293Z,101652.47
2022-08-01T14:30:03.015Z,101646.03
2022-08-01T14:32:28.396Z,101645.22
2022-08-01T14:34:56.987Z,101639.06
2022-08-01T14:37:27.915Z,101641.88
2022-08-01T14:39:57.383Z,101641.28
2022-08-01T14:42:28.282Z,101646.56
2022-08-01T14:44:56.246Z,101647.38
2022-08-01T14:47:24.229Z,101650.25
2022-08-01T14:49:52.572Z,101654.34
2022-08-01T14:52:21.641Z,101654.72
2022-08-01T14:54:49.761Z,101646.84
2022-08-01T14:57:19.314Z,101647.75
2022-08-01T14:59:48.960Z,101652.75
2022-08-01T15:02:18.270Z,101650.72
2022-08-01T15:04:46.980Z,101646.63
2022-08-01T15:07:15.595Z,101643.34
2022-08-01T15:09:44.116Z,101643.88
2022-08-01T15:12:12.541Z,101645.75
2022-08-01T15:14:49.921Z,101645.97
2022-08-01T15:17:20.931Z,101644.59
2022-08-01T15:19:52.524Z,101639.97
2022-08-01T15:22:22.302Z,101650.03
2022-08-01T15:24:55.370Z,101647.22
2022-08-01T15:27:25.500Z,101653.94
2022-08-01T15:29:53.994Z,101657.22
2022-08-01T15:32:23.652Z,101656.47
2022-08-01T15:34:51.828Z,101654.34
2022-08-01T15:37:20.337Z,101649.88
2022-08-01T15:39:48.373Z,101653.53
2022-08-01T15:42:20.252Z,101662.78
2022-08-01T15:44:54.677Z,101666.66
2022-08-01T15:47:24.847Z,101668.06
2022-08-01T15:49:53.238Z,101671.09
2022-08-01T15:52:23.176Z,101663.38
2022-08-01T15:54:58.839Z,101669.31
2022-08-01T15:57:26.816Z,101672.19
2022-08-01T15:59:54.776Z,101669.31
2022-08-01T16:02:24.245Z,101679.00
2022-08-01T16:04:52.304Z,101679.59
2022-08-01T16:07:20.331Z,101676.47
2022-08-01T16:09:48.526Z,101675.41
2022-08-01T16:12:16.582Z,101677.06
2022-08-01T16:14:44.593Z,101674.19
2022-08-01T16:17:12.938Z,101682.25
2022-08-01T16:19:42.506Z,101674.19
2022-08-01T16:22:10.550Z,101678.53
2022-08-01T16:24:38.737Z,101685.81
2022-08-01T16:27:06.961Z,101691.59
2022-08-01T16:29:35.630Z,101684.59
2022-08-01T16:32:11.111Z,101695.66
2022-08-01T16:34:53.516Z,101686.50
2022-08-01T16:37:22.823Z,101688.25
2022-08-01T16:39:50.848Z,101690.09
2022-08-01T16:42:18.827Z,101693.09
2022-08-01T16:44:46.965Z,101695.41
2022-08-01T16:47:17.935Z,101693.41
2022-08-01T16:49:45.919Z,101701.00
2022-08-01T16:52:15.295Z,101702.28
2022-08-01T16:54:43.379Z,101700.28
2022-08-01T16:57:11.625Z,101702.28
2022-08-01T16:59:41.406Z,101705.84
2022-08-01T17:02:11.431Z,101698.84
2022-08-01T17:04:39.548Z,101707.44
2022-08-01T17:07:07.985Z,101711.28
2022-08-01T17:09:42.757Z,101713.28
2022-08-01T17:12:14.364Z,101709.22
2022-08-01T17:14:50.128Z,101717.38
2022-08-01T17:17:18.403Z,101723.63
2022-08-01T17:19:46.765Z,101721.94
2022-08-01T17:22:14.879Z,101719.94
2022-08-01T17:24:44.288Z,101719.34
2022-08-01T17:27:13.517Z,101706.75
2022-08-01T17:29:43.745Z,101713.19
2022-08-01T17:32:12.803Z,101726.56
2022-08-01T17:34:40.882Z,101724.84
2022-08-01T17:37:09.245Z,101718.09
2022-08-01T17:39:39.569Z,101715.34
2022-08-01T17:42:10.941Z,101721.59
2022-08-01T17:44:39.143Z,101724.16
2022-08-01T17:47:09.977Z,101724.16
2022-08-01T17:49:54.490Z,101727.59
2022-08-01T17:52:23.548Z,101731.13
2022-08-01T17:54:57.613Z,101726.00
2022-08-01T17:57:27.013Z,101735.38
2022-08-01T17:59:55.392Z,101730.47
2022-08-01T18:02:23.510Z,101730.41
2022-08-01T18:04:53.066Z,101732.53
2022-08-01T18:08:01.777Z,101735.91
2022-08-01T18:10:11.916Z,101730.47
2022-08-01T18:12:41.774Z,101741.22
2022-08-01T18:15:10.415Z,101735.00
2022-08-01T18:17:43.449Z,101735.91
2022-08-01T18:20:12.710Z,101748.00
2022-08-01T18:22:41.633Z,101743.97
2022-08-01T18:25:10.608Z,101739.41
2022-08-01T18:28:23.361Z,101749.91
2022-08-01T18:30:28.131Z,101743.03
2022-08-01T18:32:56.396Z,101739.66
2022-08-01T18:35:33.041Z,101739.53
2022-08-01T18:38:13.369Z,101747.63
2022-08-01T18:40:41.462Z,101745.22
2022-08-01T18:43:09.557Z,101747.59
2022-08-01T18:45:42.799Z,101756.94
2022-08-01T18:48:11.367Z,101756.69
2022-08-01T18:50:39.798Z,101757.09
2022-08-01T18:53:07.855Z,101758.34
2022-08-01T18:55:35.921Z,101759.44
2022-08-01T18:58:04.008Z,101755.25
2022-08-01T19:00:32.144Z,101751.81
2022-08-01T19:03:01.524Z,101752.09
2022-08-01T19:05:32.244Z,101755.78
2022-08-01T19:08:06.017Z,101767.97
2022-08-01T19:10:35.820Z,101762.56
2022-08-01T19:13:03.767Z,101763.41
2022-08-01T19:15:32.100Z,101774.97
2022-08-01T19:18:02.195Z,101776.72
2022-08-01T19:20:30.480Z,101778.06
2022-08-01T19:22:58.856Z,101789.22
2022-08-01T19:25:27.971Z,101790.06
2022-08-01T19:27:59.290Z,101790.53
2022-08-01T19:30:28.779Z,101795.56
2022-08-01T19:32:57.703Z,101795.06
2022-08-01T19:35:27.189Z,101795.31
2022-08-01T19:37:57.559Z,101798.25
2022-08-01T19:40:27.353Z,101800.56
2022-08-01T19:42:57.595Z,101804.34
2022-08-01T19:45:30.306Z,101807.66
2022-08-01T19:47:58.501Z,101801.88
2022-08-01T19:50:28.741Z,101799.91
2022-08-01T19:52:58.947Z,101806.19
2022-08-01T19:55:28.832Z,101809.47
2022-08-01T19:58:25.366Z,101807.97
2022-08-01T20:00:48.611Z,101815.31
2022-08-01T20:03:19.441Z,101811.66
2022-08-01T20:05:49.112Z,101815.56
2022-08-01T20:08:18.343Z,101811.25
2022-08-01T20:10:47.893Z,101817.97
2022-08-01T20:13:16.493Z,101818.31
2022-08-01T20:15:45.364Z,101822.91
2022-08-01T20:18:13.507Z,101816.28
2022-08-01T20:20:41.781Z,101807.78
2022-08-01T20:23:18.111Z,101822.28
2022-08-01T20:25:49.671Z,101827.00
2022-08-01T20:28:22.134Z,101818.28
2022-08-01T20:30:54.562Z,101818.41
2022-08-01T20:33:22.676Z,101826.00
2022-08-01T20:35:53.680Z,101816.41
2022-08-01T20:38:27.684Z,101816.66
2022-08-01T20:40:58.883Z,101809.88
2022-08-01T20:43:28.103Z,101817.22
2022-08-01T20:45:57.729Z,101816.44
2022-08-01T20:48:27.618Z,101810.75
2022-08-01T20:51:13.283Z,101806.78
2022-08-01T20:53:45.243Z,101811.94
2022-08-01T20:56:18.316Z,101811.94
2022-08-01T20:59:10.342Z,101822.84
2022-08-01T21:01:46.475Z,101825.25
2022-08-01T21:04:33.545Z,101832.47
2022-08-01T21:07:11.155Z,101832.50
2022-08-01T21:09:43.771Z,101828.06
2022-08-01T21:12:21.421Z,101841.16
2022-08-01T21:14:54.357Z,101838.44
2022-08-01T21:17:38.787Z,101839.59
2022-08-01T21:20:08.677Z,101841.97
2022-08-01T21:22:39.714Z,101844.78
2022-08-01T21:25:14.357Z,101849.41
2022-08-01T21:27:47.129Z,101846.06
2022-08-01T21:30:15.484Z,101849.94
2022-08-01T21:32:44.380Z,101845.66
2022-08-01T21:35:15.868Z,101849.53
2022-08-01T21:37:52.094Z,101849.84
2022-08-01T21:40:24.115Z,101848.00
2022-08-01T21:42:54.130Z,101840.25
2022-08-01T21:45:24.729Z,101841.00
2022-08-01T21:47:53.498Z,101840.13
2022-08-01T21:50:22.298Z,101841.13
2022-08-01T21:52:59.271Z,101839.94
2022-08-01T21:55:35.551Z,101843.50
2022-08-01T21:58:19.268Z,101842.63
2022-08-01T22:00:53.425Z,101830.88
2022-08-01T22:03:26.181Z,101835.19
2022-08-01T22:05:55.987Z,101835.31
2022-08-01T22:08:30.972Z,101833.22
2022-08-01T22:11:01.878Z,101841.00
2022-08-01T22:13:30.190Z,101839.47
2022-08-01T22:15:59.890Z,101829.69
2022-08-01T22:18:29.053Z,101836.13
2022-08-01T22:20:59.991Z,101845.19
2022-08-01T22:23:29.294Z,101847.00
2022-08-01T22:25:57.450Z,101846.03
2022-08-01T22:28:27.318Z,101844.72
2022-08-01T22:30:56.255Z,101844.44
2022-08-01T22:33:25.101Z,101848.28
2022-08-01T22:35:53.739Z,101842.91
2022-08-01T22:38:23.732Z,101844.09
2022-08-01T22:40:54.739Z,101845.25
2022-08-01T22:43:31.240Z,101844.09
2022-08-01T22:46:15.836Z,101842.56
2022-08-01T22:48:47.352Z,101845.06
2022-08-01T22:51:55.254Z,101844.59
2022-08-01T22:54:29.257Z,101843.59
2022-08-01T22:56:58.252Z,101847.38
2022-08-01T22:59:42.790Z,101847.63
2022-08-01T23:02:16.122Z,101843.00
2022-08-01T23:04:46.953Z,101834.06
2022-08-01T23:07:20.442Z,101833.41
2022-08-01T23:09:54.685Z,101830.19
2022-08-01T23:12:27.233Z,101831.34
2022-08-01T23:15:00.156Z,101830.69
2022-08-01T23:17:31.729Z,101828.97
2022-08-01T23:20:01.596Z,101824.44
2022-08-01T23:22:32.305Z,101824.09
2022-08-01T23:25:04.703Z,101818.84
2022-08-01T23:28:03.747Z,101821.91
2022-08-01T23:30:27.038Z,101823.63
2022-08-01T23:32:55.537Z,101827.97
2022-08-01T23:35:24.457Z,101829.13
2022-08-01T23:37:52.847Z,101827.28
2022-08-01T23:40:24.848Z,101826.44
2022-08-01T23:42:54.720Z,101822.56
2022-08-01T23:45:23.356Z,101823.63
2022-08-01T23:47:53.376Z,101825.88
2022-08-01T23:50:22.497Z,101834.34
2022-08-01T23:52:51.449Z,101835.50
2022-08-01T23:55:25.094Z,101841.75
2022-08-01T23:58:06.969Z,101839.94
